sensor_id;sensor_type;location;lat;lon;timestamp;noise_LAeq;noise_LA_min;noise_LA_max;noise_LA01;noise_LA95
69619;Laerm;57653;51.434;5.984;2023-04-01T00:00:06;39.23;36.28;57.29;;
69619;Laerm;57653;51.434;5.984;2023-04-01T00:00:17;38.28;35.77;50.18;;
69619;Laerm;57653;51.434;5.984;2023-04-01T00:00:27;38.39;35.19;54.30;;
69619;Laerm;57653;51.434;5.984;2023-04-01T00:00:38;38.51;35.65;55.60;;
69619;Laerm;57653;51.434;5.984;2023-04-01T00:00:48;40.11;36.34;59.26;;
69619;Laerm;57653;51.434;5.984;2023-04-01T00:00:58;37.82;36.55;41.68;;
69619;Laerm;57653;51.434;5.984;2023-04-01T00:01:09;38.66;35.89;57.04;;
69619;Laerm;57653;51.434;5.984;2023-04-01T00:01:20;39.14;36.25;53.89;;
69619;Laerm;57653;51.434;5.984;2023-04-01T00:01:31;44.84;36.44;68.63;;
69619;Laerm;57653;51.434;5.984;2023-04-01T00:01:41;39.17;36.16;55.87;;
69619;Laerm;57653;51.434;5.984;2023-04-01T00:01:51;37.93;36.42;41.34;;
69619;Laerm;57653;51.434;5.984;2023-04-01T00:02:01;38.15;36.44;47.20;;
69619;Laerm;57653;51.434;5.984;2023-04-01T00:02:12;39.19;36.11;56.91;;
69619;Laerm;57653;51.434;5.984;2023-04-01T00:02:22;37.87;36.40;42.07;;
69619;Laerm;57653;51.434;5.984;2023-04-01T00:02:32;41.68;36.55;60.47;;
69619;Laerm;57653;51.434;5.984;2023-04-01T00:02:43;39.35;37.69;47.84;;
69619;Laerm;57653;51.434;5.984;2023-04-01T00:02:53;40.10;37.64;46.35;;
69619;Laerm;57653;51.434;5.984;2023-04-01T00:03:03;48.49;39.52;72.20;;
69619;Laerm;57653;51.434;5.984;2023-04-01T00:03:13;42.50;40.35;57.66;;
69619;Laerm;57653;51.434;5.984;2023-04-01T00:03:24;43.53;40.59;59.45;;
69619;Laerm;57653;51.434;5.984;2023-04-01T00:03:35;42.58;39.89;58.12;;
69619;Laerm;57653;51.434;5.984;2023-04-01T00:03:46;41.62;39.70;46.46;;
69619;Laerm;57653;51.434;5.984;2023-04-01T00:03:56;41.91;39.25;46.43;;
69619;Laerm;57653;51.434;5.984;2023-04-01T00:04:06;41.93;39.36;53.50;;
69619;Laerm;57653;51.434;5.984;2023-04-01T00:04:16;42.70;38.67;58.05;;
69619;Laerm;57653;51.434;5.984;2023-04-01T00:04:27;47.94;39.35;67.62;;
69619;Laerm;57653;51.434;5.984;2023-04-01T00:04:37;46.98;39.05;65.64;;
69619;Laerm;57653;51.434;5.984;2023-04-01T00:04:48;40.16;37.54;46.81;;
69619;Laerm;57653;51.434;5.984;2023-04-01T00:04:58;42.66;36.46;59.47;;
69619;Laerm;57653;51.434;5.984;2023-04-01T00:05:08;38.47;36.47;49.61;;
69619;Laerm;57653;51.434;5.984;2023-04-01T00:05:20;37.68;36.01;41.42;;
69619;Laerm;57653;51.434;5.984;2023-04-01T00:05:30;37.61;36.16;40.98;;
69619;Laerm;57653;51.434;5.984;2023-04-01T00:05:40;37.81;36.01;46.58;;
69619;Laerm;57653;51.434;5.984;2023-04-01T00:05:51;37.35;35.82;42.77;;
69619;Laerm;57653;51.434;5.984;2023-04-01T00:06:01;37.45;35.78;42.61;;
69619;Laerm;57653;51.434;5.984;2023-04-01T00:06:12;38.29;34.80;57.86;;
69619;Laerm;57653;51.434;5.984;2023-04-01T00:06:23;37.66;34.76;54.47;;
69619;Laerm;57653;51.434;5.984;2023-04-01T00:06:33;38.15;35.03;56.88;;
69619;Laerm;57653;51.434;5.984;2023-04-01T00:06:44;39.48;35.48;56.40;;
69619;Laerm;57653;51.434;5.984;2023-04-01T00:06:54;49.04;35.22;68.59;;
69619;Laerm;57653;51.434;5.984;2023-04-01T00:07:05;40.68;35.44;59.34;;
69619;Laerm;57653;51.434;5.984;2023-04-01T00:07:15;36.26;34.56;39.96;;
69619;Laerm;57653;51.434;5.984;2023-04-01T00:07:25;37.36;34.59;52.03;;
69619;Laerm;57653;51.434;5.984;2023-04-01T00:07:36;42.38;34.51;63.27;;
69619;Laerm;57653;51.434;5.984;2023-04-01T00:07:46;41.33;35.62;60.57;;
69619;Laerm;57653;51.434;5.984;2023-04-01T00:07:57;38.07;35.73;41.13;;
69619;Laerm;57653;51.434;5.984;2023-04-01T00:08:07;39.19;36.95;46.61;;
69619;Laerm;57653;51.434;5.984;2023-04-01T00:08:18;43.20;36.15;61.24;;
69619;Laerm;57653;51.434;5.984;2023-04-01T00:08:28;42.78;35.95;61.64;;
69619;Laerm;57653;51.434;5.984;2023-04-01T00:08:39;60.75;38.06;67.91;;
69619;Laerm;57653;51.434;5.984;2023-04-01T00:08:49;65.92;63.44;70.23;;
69619;Laerm;57653;51.434;5.984;2023-04-01T00:09:00;66.98;60.16;71.00;;
69619;Laerm;57653;51.434;5.984;2023-04-01T00:09:10;55.75;45.80;61.99;;
69619;Laerm;57653;51.434;5.984;2023-04-01T00:09:20;45.41;40.38;54.42;;
69619;Laerm;57653;51.434;5.984;2023-04-01T00:09:30;41.39;39.33;43.92;;
69619;Laerm;57653;51.434;5.984;2023-04-01T00:09:41;39.38;37.36;43.08;;
69619;Laerm;57653;51.434;5.984;2023-04-01T00:09:51;38.41;36.20;43.12;;
69619;Laerm;57653;51.434;5.984;2023-04-01T00:10:01;44.33;37.33;59.96;;
69619;Laerm;57653;51.434;5.984;2023-04-01T00:10:12;39.51;37.37;42.73;;
69619;Laerm;57653;51.434;5.984;2023-04-01T00:10:22;39.06;37.17;48.16;;
69619;Laerm;57653;51.434;5.984;2023-04-01T00:10:33;40.65;37.61;46.11;;
69619;Laerm;57653;51.434;5.984;2023-04-01T00:10:43;41.96;39.12;46.46;;
69619;Laerm;57653;51.434;5.984;2023-04-01T00:10:54;41.19;38.15;53.54;;
69619;Laerm;57653;51.434;5.984;2023-04-01T00:11:04;41.10;38.99;48.06;;
69619;Laerm;57653;51.434;5.984;2023-04-01T00:11:15;40.80;37.91;53.86;;
69619;Laerm;57653;51.434;5.984;2023-04-01T00:11:25;39.11;36.53;42.94;;
69619;Laerm;57653;51.434;5.984;2023-04-01T00:11:37;37.55;35.21;43.37;;
69619;Laerm;57653;51.434;5.984;2023-04-01T00:11:47;40.40;35.45;60.55;;
69619;Laerm;57653;51.434;5.984;2023-04-01T00:11:58;39.49;36.46;45.13;;
69619;Laerm;57653;51.434;5.984;2023-04-01T00:12:08;37.69;35.94;40.18;;
69619;Laerm;57653;51.434;5.984;2023-04-01T00:12:18;38.39;36.32;46.83;;
69619;Laerm;57653;51.434;5.984;2023-04-01T00:12:28;39.52;38.03;41.11;;
69619;Laerm;57653;51.434;5.984;2023-04-01T00:12:39;38.93;37.13;53.38;;
69619;Laerm;57653;51.434;5.984;2023-04-01T00:12:50;38.32;36.12;48.26;;
69619;Laerm;57653;51.434;5.984;2023-04-01T00:13:00;39.40;36.50;46.36;;
69619;Laerm;57653;51.434;5.984;2023-04-01T00:13:11;49.35;40.88;57.74;;
69619;Laerm;57653;51.434;5.984;2023-04-01T00:13:21;61.29;55.43;64.31;;
69619;Laerm;57653;51.434;5.984;2023-04-01T00:13:32;62.09;60.05;64.71;;
69619;Laerm;57653;51.434;5.984;2023-04-01T00:13:42;59.17;43.51;64.52;;
69619;Laerm;57653;51.434;5.984;2023-04-01T00:13:53;54.50;41.58;62.31;;
69619;Laerm;57653;51.434;5.984;2023-04-01T00:14:03;60.61;58.10;63.31;;
69619;Laerm;57653;51.434;5.984;2023-04-01T00:14:13;60.21;58.32;62.37;;
69619;Laerm;57653;51.434;5.984;2023-04-01T00:14:23;53.77;43.21;59.66;;
69619;Laerm;57653;51.434;5.984;2023-04-01T00:14:34;42.97;40.16;48.43;;
69619;Laerm;57653;51.434;5.984;2023-04-01T00:14:46;42.74;40.52;48.57;;
69619;Laerm;57653;51.434;5.984;2023-04-01T00:14:57;40.06;37.12;43.50;;
69619;Laerm;57653;51.434;5.984;2023-04-01T00:15:08;39.57;37.73;49.38;;
69619;Laerm;57653;51.434;5.984;2023-04-01T00:15:18;40.69;37.27;53.41;;
69619;Laerm;57653;51.434;5.984;2023-04-01T00:15:29;43.78;37.88;63.91;;
69619;Laerm;57653;51.434;5.984;2023-04-01T00:15:40;40.04;37.04;50.84;;
69619;Laerm;57653;51.434;5.984;2023-04-01T00:15:50;42.81;37.45;60.40;;
69619;Laerm;57653;51.434;5.984;2023-04-01T00:16:00;46.17;37.71;62.36;;
69619;Laerm;57653;51.434;5.984;2023-04-01T00:16:11;40.23;37.56;51.29;;
69619;Laerm;57653;51.434;5.984;2023-04-01T00:16:22;38.77;36.93;41.18;;
69619;Laerm;57653;51.434;5.984;2023-04-01T00:16:32;39.69;37.03;47.27;;
69619;Laerm;57653;51.434;5.984;2023-04-01T00:16:43;38.88;37.39;45.44;;
69619;Laerm;57653;51.434;5.984;2023-04-01T00:16:53;41.07;37.88;53.23;;
69619;Laerm;57653;51.434;5.984;2023-04-01T00:17:03;40.85;38.39;51.07;;
69619;Laerm;57653;51.434;5.984;2023-04-01T00:17:14;40.68;37.12;50.76;;
69619;Laerm;57653;51.434;5.984;2023-04-01T00:17:24;46.30;36.48;64.32;;
69619;Laerm;57653;51.434;5.984;2023-04-01T00:17:34;43.13;36.31;59.46;;
69619;Laerm;57653;51.434;5.984;2023-04-01T00:17:45;39.03;36.22;53.23;;
69619;Laerm;57653;51.434;5.984;2023-04-01T00:17:55;37.83;35.75;42.30;;
69619;Laerm;57653;51.434;5.984;2023-04-01T00:18:06;37.19;34.90;51.51;;
69619;Laerm;57653;51.434;5.984;2023-04-01T00:18:16;37.74;35.45;50.94;;
69619;Laerm;57653;51.434;5.984;2023-04-01T00:18:26;36.75;34.95;43.50;;
69619;Laerm;57653;51.434;5.984;2023-04-01T00:18:37;36.63;35.25;40.91;;
69619;Laerm;57653;51.434;5.984;2023-04-01T00:18:47;37.38;35.15;47.45;;
69619;Laerm;57653;51.434;5.984;2023-04-01T00:18:58;38.50;36.38;46.06;;
69619;Laerm;57653;51.434;5.984;2023-04-01T00:19:09;37.09;35.24;40.62;;
69619;Laerm;57653;51.434;5.984;2023-04-01T00:19:20;36.82;35.27;40.08;;
69619;Laerm;57653;51.434;5.984;2023-04-01T00:19:30;36.98;35.37;40.52;;
69619;Laerm;57653;51.434;5.984;2023-04-01T00:19:42;38.43;34.88;54.62;;
69619;Laerm;57653;51.434;5.984;2023-04-01T00:19:54;36.49;34.40;46.58;;
69619;Laerm;57653;51.434;5.984;2023-04-01T00:20:05;36.77;35.26;40.04;;
69619;Laerm;57653;51.434;5.984;2023-04-01T00:20:16;38.37;34.77;56.11;;
69619;Laerm;57653;51.434;5.984;2023-04-01T00:20:26;37.59;35.22;44.22;;
69619;Laerm;57653;51.434;5.984;2023-04-01T00:20:37;38.22;36.73;40.45;;
69619;Laerm;57653;51.434;5.984;2023-04-01T00:20:48;38.16;35.32;43.49;;
69619;Laerm;57653;51.434;5.984;2023-04-01T00:20:58;39.00;36.76;48.06;;
69619;Laerm;57653;51.434;5.984;2023-04-01T00:21:09;38.44;36.78;42.24;;
69619;Laerm;57653;51.434;5.984;2023-04-01T00:21:20;37.72;35.47;40.53;;
69619;Laerm;57653;51.434;5.984;2023-04-01T00:21:30;36.95;35.42;41.69;;
69619;Laerm;57653;51.434;5.984;2023-04-01T00:21:41;36.42;34.56;42.44;;
69619;Laerm;57653;51.434;5.984;2023-04-01T00:21:51;36.14;34.63;40.96;;
69619;Laerm;57653;51.434;5.984;2023-04-01T00:22:02;36.53;34.76;39.97;;
69619;Laerm;57653;51.434;5.984;2023-04-01T00:22:13;36.51;34.87;44.31;;
69619;Laerm;57653;51.434;5.984;2023-04-01T00:22:23;37.01;35.25;41.19;;
69619;Laerm;57653;51.434;5.984;2023-04-01T00:22:34;36.96;35.19;41.63;;
69619;Laerm;57653;51.434;5.984;2023-04-01T00:22:45;37.25;35.11;41.31;;
69619;Laerm;57653;51.434;5.984;2023-04-01T00:22:55;38.37;36.54;42.04;;
69619;Laerm;57653;51.434;5.984;2023-04-01T00:23:06;43.57;38.43;49.11;;
69619;Laerm;57653;51.434;5.984;2023-04-01T00:23:16;60.78;46.30;66.88;;
69619;Laerm;57653;51.434;5.984;2023-04-01T00:23:26;62.58;59.47;67.23;;
69619;Laerm;57653;51.434;5.984;2023-04-01T00:23:36;60.61;57.79;63.33;;
69619;Laerm;57653;51.434;5.984;2023-04-01T00:23:47;54.60;38.11;59.75;;
69619;Laerm;57653;51.434;5.984;2023-04-01T00:23:58;37.52;36.03;41.07;;
69619;Laerm;57653;51.434;5.984;2023-04-01T00:24:09;37.00;35.44;40.51;;
69619;Laerm;57653;51.434;5.984;2023-04-01T00:24:19;37.14;35.27;39.80;;
69619;Laerm;57653;51.434;5.984;2023-04-01T00:24:30;36.51;34.57;40.50;;
69619;Laerm;57653;51.434;5.984;2023-04-01T00:24:40;39.67;37.29;53.28;;
69619;Laerm;57653;51.434;5.984;2023-04-01T00:24:50;40.34;38.16;43.96;;
69619;Laerm;57653;51.434;5.984;2023-04-01T00:25:01;40.20;37.51;44.81;;
69619;Laerm;57653;51.434;5.984;2023-04-01T00:25:11;37.70;35.74;44.16;;
69619;Laerm;57653;51.434;5.984;2023-04-01T00:25:21;38.31;35.16;57.50;;
69619;Laerm;57653;51.434;5.984;2023-04-01T00:25:32;36.75;35.31;40.89;;
69619;Laerm;57653;51.434;5.984;2023-04-01T00:25:42;38.64;35.19;58.19;;
69619;Laerm;57653;51.434;5.984;2023-04-01T00:25:53;36.97;35.40;42.10;;
69619;Laerm;57653;51.434;5.984;2023-04-01T00:26:03;36.74;35.03;42.87;;
69619;Laerm;57653;51.434;5.984;2023-04-01T00:26:14;40.75;36.02;56.84;;
69619;Laerm;57653;51.434;5.984;2023-04-01T00:26:27;38.71;34.86;50.98;;
69619;Laerm;57653;51.434;5.984;2023-04-01T00:26:38;37.10;35.28;43.67;;
69619;Laerm;57653;51.434;5.984;2023-04-01T00:26:48;37.66;35.23;43.94;;
69619;Laerm;57653;51.434;5.984;2023-04-01T00:26:58;39.63;35.69;48.61;;
69619;Laerm;57653;51.434;5.984;2023-04-01T00:27:09;38.76;36.41;43.51;;
69619;Laerm;57653;51.434;5.984;2023-04-01T00:27:19;38.21;36.01;45.66;;
69619;Laerm;57653;51.434;5.984;2023-04-01T00:27:30;38.36;36.99;43.87;;
69619;Laerm;57653;51.434;5.984;2023-04-01T00:27:40;38.88;37.12;42.82;;
69619;Laerm;57653;51.434;5.984;2023-04-01T00:27:50;39.78;37.68;43.42;;
69619;Laerm;57653;51.434;5.984;2023-04-01T00:28:01;49.78;39.66;56.79;;
69619;Laerm;57653;51.434;5.984;2023-04-01T00:28:11;63.13;55.79;67.27;;
69619;Laerm;57653;51.434;5.984;2023-04-01T00:28:21;65.26;62.54;71.28;;
69619;Laerm;57653;51.434;5.984;2023-04-01T00:28:31;62.97;49.08;69.11;;
69619;Laerm;57653;51.434;5.984;2023-04-01T00:28:43;41.64;36.53;49.95;;
69619;Laerm;57653;51.434;5.984;2023-04-01T00:28:54;37.30;35.32;43.38;;
69619;Laerm;57653;51.434;5.984;2023-04-01T00:29:04;37.25;35.37;42.40;;
69619;Laerm;57653;51.434;5.984;2023-04-01T00:29:15;37.45;35.60;42.93;;
69619;Laerm;57653;51.434;5.984;2023-04-01T00:29:25;38.34;35.56;50.08;;
69619;Laerm;57653;51.434;5.984;2023-04-01T00:29:41;38.84;36.90;49.36;;
69619;Laerm;57653;51.434;5.984;2023-04-01T00:29:52;38.26;36.27;45.32;;
69619;Laerm;57653;51.434;5.984;2023-04-01T00:30:02;37.95;35.69;41.93;;
69619;Laerm;57653;51.434;5.984;2023-04-01T00:30:13;38.40;36.68;41.46;;
69619;Laerm;57653;51.434;5.984;2023-04-01T00:30:23;39.12;36.45;53.91;;
69619;Laerm;57653;51.434;5.984;2023-04-01T00:30:35;40.16;36.91;59.21;;
69619;Laerm;57653;51.434;5.984;2023-04-01T00:30:46;39.54;37.08;43.23;;
69619;Laerm;57653;51.434;5.984;2023-04-01T00:30:56;39.08;37.15;45.71;;
69619;Laerm;57653;51.434;5.984;2023-04-01T00:31:07;38.55;36.58;42.80;;
69619;Laerm;57653;51.434;5.984;2023-04-01T00:31:18;38.28;36.39;43.88;;
69619;Laerm;57653;51.434;5.984;2023-04-01T00:31:28;39.64;37.66;43.01;;
69619;Laerm;57653;51.434;5.984;2023-04-01T00:31:39;42.57;38.92;46.85;;
69619;Laerm;57653;51.434;5.984;2023-04-01T00:31:50;53.74;44.02;61.28;;
69619;Laerm;57653;51.434;5.984;2023-04-01T00:32:00;59.06;55.74;64.53;;
69619;Laerm;57653;51.434;5.984;2023-04-01T00:32:10;57.99;55.22;60.50;;
69619;Laerm;57653;51.434;5.984;2023-04-01T00:32:21;51.94;39.92;57.46;;
69619;Laerm;57653;51.434;5.984;2023-04-01T00:32:31;45.08;36.51;62.48;;
69619;Laerm;57653;51.434;5.984;2023-04-01T00:32:41;43.39;37.47;59.52;;
69619;Laerm;57653;51.434;5.984;2023-04-01T00:32:52;38.78;36.24;41.60;;
69619;Laerm;57653;51.434;5.984;2023-04-01T00:33:03;39.22;36.65;52.02;;
69619;Laerm;57653;51.434;5.984;2023-04-01T00:33:13;45.30;36.74;65.80;;
69619;Laerm;57653;51.434;5.984;2023-04-01T00:33:24;40.53;37.24;59.73;;
69619;Laerm;57653;51.434;5.984;2023-04-01T00:33:34;40.96;35.83;57.16;;
69619;Laerm;57653;51.434;5.984;2023-04-01T00:33:45;37.78;35.59;43.00;;
69619;Laerm;57653;51.434;5.984;2023-04-01T00:33:55;40.84;37.00;61.60;;
69619;Laerm;57653;51.434;5.984;2023-04-01T00:34:06;40.86;38.64;43.85;;
69619;Laerm;57653;51.434;5.984;2023-04-01T00:34:16;41.34;38.86;57.89;;
69619;Laerm;57653;51.434;5.984;2023-04-01T00:34:27;39.50;37.23;42.44;;
69619;Laerm;57653;51.434;5.984;2023-04-01T00:34:37;45.30;40.02;50.48;;
69619;Laerm;57653;51.434;5.984;2023-04-01T00:34:50;44.78;39.91;55.67;;
69619;Laerm;57653;51.434;5.984;2023-04-01T00:35:00;40.19;37.86;51.76;;
69619;Laerm;57653;51.434;5.984;2023-04-01T00:35:10;43.96;39.44;63.42;;
69619;Laerm;57653;51.434;5.984;2023-04-01T00:35:20;41.88;38.91;53.62;;
69619;Laerm;57653;51.434;5.984;2023-04-01T00:35:31;39.11;37.41;47.65;;
69619;Laerm;57653;51.434;5.984;2023-04-01T00:35:42;38.68;36.84;45.00;;
69619;Laerm;57653;51.434;5.984;2023-04-01T00:35:52;40.85;37.36;55.75;;
69619;Laerm;57653;51.434;5.984;2023-04-01T00:36:06;41.60;38.50;51.23;;
69619;Laerm;57653;51.434;5.984;2023-04-01T00:36:17;39.77;37.05;49.49;;
69619;Laerm;57653;51.434;5.984;2023-04-01T00:36:28;41.38;38.57;46.07;;
69619;Laerm;57653;51.434;5.984;2023-04-01T00:36:38;48.65;41.52;55.80;;
69619;Laerm;57653;51.434;5.984;2023-04-01T00:36:49;63.38;53.55;67.57;;
69619;Laerm;57653;51.434;5.984;2023-04-01T00:37:00;63.26;59.25;65.46;;
69619;Laerm;57653;51.434;5.984;2023-04-01T00:37:10;53.76;36.95;60.14;;
69619;Laerm;57653;51.434;5.984;2023-04-01T00:37:21;38.02;35.51;49.53;;
69619;Laerm;57653;51.434;5.984;2023-04-01T00:37:34;39.74;35.97;43.08;;
69619;Laerm;57653;51.434;5.984;2023-04-01T00:37:44;39.91;37.24;48.85;;
69619;Laerm;57653;51.434;5.984;2023-04-01T00:37:55;37.77;35.35;49.12;;
69619;Laerm;57653;51.434;5.984;2023-04-01T00:38:05;36.85;35.05;41.78;;
69619;Laerm;57653;51.434;5.984;2023-04-01T00:38:16;36.27;33.79;46.04;;
69619;Laerm;57653;51.434;5.984;2023-04-01T00:38:27;36.31;34.68;41.63;;
69619;Laerm;57653;51.434;5.984;2023-04-01T00:38:37;36.18;34.28;43.89;;
69619;Laerm;57653;51.434;5.984;2023-04-01T00:38:47;36.99;35.25;40.11;;
69619;Laerm;57653;51.434;5.984;2023-04-01T00:38:58;38.52;35.94;41.67;;
69619;Laerm;57653;51.434;5.984;2023-04-01T00:39:09;38.99;37.13;41.75;;
69619;Laerm;57653;51.434;5.984;2023-04-01T00:39:20;39.06;37.24;47.64;;
69619;Laerm;57653;51.434;5.984;2023-04-01T00:39:30;39.32;37.07;43.98;;
69619;Laerm;57653;51.434;5.984;2023-04-01T00:39:41;39.38;36.95;49.55;;
69619;Laerm;57653;51.434;5.984;2023-04-01T00:39:51;38.60;36.10;52.65;;
69619;Laerm;57653;51.434;5.984;2023-04-01T00:40:02;37.23;35.37;43.86;;
69619;Laerm;57653;51.434;5.984;2023-04-01T00:40:36;38.21;35.32;43.92;;
69619;Laerm;57653;51.434;5.984;2023-04-01T00:40:47;46.88;38.55;63.13;;
69619;Laerm;57653;51.434;5.984;2023-04-01T00:40:58;41.25;37.07;54.34;;
69619;Laerm;57653;51.434;5.984;2023-04-01T00:41:09;39.73;37.96;45.81;;
69619;Laerm;57653;51.434;5.984;2023-04-01T00:41:24;39.17;36.72;55.45;;
69619;Laerm;57653;51.434;5.984;2023-04-01T00:41:36;42.87;37.29;63.37;;
69619;Laerm;57653;51.434;5.984;2023-04-01T00:41:46;38.84;36.96;43.84;;
69619;Laerm;57653;51.434;5.984;2023-04-01T00:41:57;39.01;36.93;45.73;;
69619;Laerm;57653;51.434;5.984;2023-04-01T00:42:08;39.98;36.20;47.35;;
69619;Laerm;57653;51.434;5.984;2023-04-01T00:42:18;42.25;37.36;46.16;;
69619;Laerm;57653;51.434;5.984;2023-04-01T00:42:29;39.98;37.44;50.48;;
69619;Laerm;57653;51.434;5.984;2023-04-01T00:42:39;43.98;37.55;59.71;;
69619;Laerm;57653;51.434;5.984;2023-04-01T00:42:50;42.67;37.33;62.70;;
69619;Laerm;57653;51.434;5.984;2023-04-01T00:43:00;41.84;36.91;59.66;;
69619;Laerm;57653;51.434;5.984;2023-04-01T00:43:13;39.94;37.57;53.74;;
69619;Laerm;57653;51.434;5.984;2023-04-01T00:43:23;38.87;36.89;49.64;;
69619;Laerm;57653;51.434;5.984;2023-04-01T00:43:33;37.84;36.11;44.35;;
69619;Laerm;57653;51.434;5.984;2023-04-01T00:43:45;39.58;35.99;50.99;;
69619;Laerm;57653;51.434;5.984;2023-04-01T00:44:14;38.79;36.71;48.41;;
69619;Laerm;57653;51.434;5.984;2023-04-01T00:44:29;38.10;35.61;50.81;;
69619;Laerm;57653;51.434;5.984;2023-04-01T00:44:39;39.97;36.00;54.17;;
69619;Laerm;57653;51.434;5.984;2023-04-01T00:44:50;39.02;36.03;55.81;;
69619;Laerm;57653;51.434;5.984;2023-04-01T00:45:21;39.26;36.16;56.30;;
69619;Laerm;57653;51.434;5.984;2023-04-01T00:45:41;37.13;34.40;51.76;;
69619;Laerm;57653;51.434;5.984;2023-04-01T00:45:52;38.61;35.66;41.84;;
69619;Laerm;57653;51.434;5.984;2023-04-01T00:46:02;38.16;35.73;43.00;;
69619;Laerm;57653;51.434;5.984;2023-04-01T00:46:13;37.60;36.04;46.11;;
69619;Laerm;57653;51.434;5.984;2023-04-01T00:46:23;37.51;35.48;42.67;;
69619;Laerm;57653;51.434;5.984;2023-04-01T00:46:33;37.19;35.10;46.27;;
69619;Laerm;57653;51.434;5.984;2023-04-01T00:46:45;38.27;36.47;46.23;;
69619;Laerm;57653;51.434;5.984;2023-04-01T00:46:56;38.58;36.30;43.58;;
69619;Laerm;57653;51.434;5.984;2023-04-01T00:47:06;39.91;36.23;53.50;;
69619;Laerm;57653;51.434;5.984;2023-04-01T00:47:17;45.04;37.73;63.88;;
69619;Laerm;57653;51.434;5.984;2023-04-01T00:47:27;40.87;37.67;49.50;;
69619;Laerm;57653;51.434;5.984;2023-04-01T00:47:37;42.69;37.18;59.70;;
69619;Laerm;57653;51.434;5.984;2023-04-01T00:47:48;41.52;37.57;55.45;;
69619;Laerm;57653;51.434;5.984;2023-04-01T00:47:59;39.48;37.12;47.66;;
69619;Laerm;57653;51.434;5.984;2023-04-01T00:48:26;42.98;40.78;52.19;;
69619;Laerm;57653;51.434;5.984;2023-04-01T00:48:39;40.73;37.98;47.56;;
69619;Laerm;57653;51.434;5.984;2023-04-01T00:48:51;43.62;37.77;58.42;;
69619;Laerm;57653;51.434;5.984;2023-04-01T00:49:03;40.00;35.77;51.83;;
69619;Laerm;57653;51.434;5.984;2023-04-01T00:49:14;40.33;35.53;57.91;;
69619;Laerm;57653;51.434;5.984;2023-04-01T00:49:33;38.57;36.06;55.16;;
69619;Laerm;57653;51.434;5.984;2023-04-01T00:49:48;38.29;36.14;47.85;;
69619;Laerm;57653;51.434;5.984;2023-04-01T00:49:59;37.75;35.99;42.92;;
69619;Laerm;57653;51.434;5.984;2023-04-01T00:50:10;37.61;35.74;43.20;;
69619;Laerm;57653;51.434;5.984;2023-04-01T00:50:21;37.54;35.92;43.29;;
69619;Laerm;57653;51.434;5.984;2023-04-01T00:50:33;37.74;35.02;52.76;;
69619;Laerm;57653;51.434;5.984;2023-04-01T00:50:46;39.82;36.01;54.44;;
69619;Laerm;57653;51.434;5.984;2023-04-01T00:51:25;37.05;35.27;42.83;;
69619;Laerm;57653;51.434;5.984;2023-04-01T00:51:37;37.95;35.54;48.98;;
69619;Laerm;57653;51.434;5.984;2023-04-01T00:51:50;37.52;35.49;42.88;;
69619;Laerm;57653;51.434;5.984;2023-04-01T00:52:02;39.59;34.98;56.67;;
69619;Laerm;57653;51.434;5.984;2023-04-01T00:52:14;36.82;34.58;41.23;;
69619;Laerm;57653;51.434;5.984;2023-04-01T00:52:25;39.03;36.10;43.31;;
69619;Laerm;57653;51.434;5.984;2023-04-01T00:52:36;43.18;34.68;64.98;;
69619;Laerm;57653;51.434;5.984;2023-04-01T00:52:46;40.89;34.87;61.18;;
69619;Laerm;57653;51.434;5.984;2023-04-01T00:52:57;37.84;35.68;48.35;;
69619;Laerm;57653;51.434;5.984;2023-04-01T00:53:09;37.46;35.44;41.00;;
69619;Laerm;57653;51.434;5.984;2023-04-01T00:53:19;38.86;36.66;41.50;;
69619;Laerm;57653;51.434;5.984;2023-04-01T00:53:30;36.99;35.48;43.73;;
69619;Laerm;57653;51.434;5.984;2023-04-01T00:53:42;40.32;35.94;60.27;;
69619;Laerm;57653;51.434;5.984;2023-04-01T00:53:54;39.21;36.77;45.46;;
69619;Laerm;57653;51.434;5.984;2023-04-01T00:54:05;41.32;38.24;48.84;;
69619;Laerm;57653;51.434;5.984;2023-04-01T00:54:16;39.86;36.71;47.43;;
69619;Laerm;57653;51.434;5.984;2023-04-01T00:54:29;37.74;35.44;43.70;;
69619;Laerm;57653;51.434;5.984;2023-04-01T00:54:40;40.87;37.12;55.52;;
69619;Laerm;57653;51.434;5.984;2023-04-01T00:54:53;37.91;35.93;40.72;;
69619;Laerm;57653;51.434;5.984;2023-04-01T00:55:06;37.61;35.49;49.58;;
69619;Laerm;57653;51.434;5.984;2023-04-01T00:55:18;37.95;36.15;42.40;;
69619;Laerm;57653;51.434;5.984;2023-04-01T00:55:30;43.67;37.15;63.77;;
69619;Laerm;57653;51.434;5.984;2023-04-01T00:55:43;50.56;37.92;65.85;;
69619;Laerm;57653;51.434;5.984;2023-04-01T00:56:15;48.38;38.50;68.35;;
69619;Laerm;57653;51.434;5.984;2023-04-01T00:56:45;44.60;39.14;61.93;;
69619;Laerm;57653;51.434;5.984;2023-04-01T00:57:02;47.58;41.77;54.07;;
69619;Laerm;57653;51.434;5.984;2023-04-01T00:57:17;63.63;52.41;67.28;;
69619;Laerm;57653;51.434;5.984;2023-04-01T00:57:31;62.88;52.30;67.87;;
69619;Laerm;57653;51.434;5.984;2023-04-01T00:57:43;45.60;36.61;54.28;;
69619;Laerm;57653;51.434;5.984;2023-04-01T00:57:54;37.64;35.88;47.69;;
69619;Laerm;57653;51.434;5.984;2023-04-01T00:58:07;38.07;35.30;43.67;;
69619;Laerm;57653;51.434;5.984;2023-04-01T00:58:19;39.01;35.81;58.34;;
69619;Laerm;57653;51.434;5.984;2023-04-01T00:58:33;39.33;37.05;48.04;;
69619;Laerm;57653;51.434;5.984;2023-04-01T00:58:46;38.39;36.38;51.43;;
69619;Laerm;57653;51.434;5.984;2023-04-01T00:59:02;38.17;36.14;43.74;;
69619;Laerm;57653;51.434;5.984;2023-04-01T00:59:14;41.88;35.58;66.56;;
69619;Laerm;57653;51.434;5.984;2023-04-01T00:59:27;43.08;35.72;54.25;;
69619;Laerm;57653;51.434;5.984;2023-04-01T00:59:40;60.01;52.43;64.85;;
69619;Laerm;57653;51.434;5.984;2023-04-01T00:59:52;61.16;57.16;67.68;;
69619;Laerm;57653;51.434;5.984;2023-04-01T01:00:04;52.54;43.97;60.84;;
69619;Laerm;57653;51.434;5.984;2023-04-01T01:00:17;44.72;38.82;61.25;;
69619;Laerm;57653;51.434;5.984;2023-04-01T01:00:27;40.76;37.57;55.25;;
69619;Laerm;57653;51.434;5.984;2023-04-01T01:00:38;42.18;37.69;57.98;;
69619;Laerm;57653;51.434;5.984;2023-04-01T01:00:48;39.46;37.11;54.82;;
69619;Laerm;57653;51.434;5.984;2023-04-01T01:01:00;37.46;36.23;38.91;;
69619;Laerm;57653;51.434;5.984;2023-04-01T01:01:11;38.07;36.07;52.56;;
69619;Laerm;57653;51.434;5.984;2023-04-01T01:01:21;40.62;36.35;53.33;;
69619;Laerm;57653;51.434;5.984;2023-04-01T01:01:33;43.57;38.85;58.10;;
69619;Laerm;57653;51.434;5.984;2023-04-01T01:01:44;42.84;38.55;57.79;;
69619;Laerm;57653;51.434;5.984;2023-04-01T01:01:55;40.37;38.61;50.57;;
69619;Laerm;57653;51.434;5.984;2023-04-01T01:02:07;39.80;37.60;45.02;;
69619;Laerm;57653;51.434;5.984;2023-04-01T01:02:18;39.32;37.56;42.49;;
69619;Laerm;57653;51.434;5.984;2023-04-01T01:02:28;38.72;36.91;47.93;;
69619;Laerm;57653;51.434;5.984;2023-04-01T01:02:40;40.84;37.21;44.77;;
69619;Laerm;57653;51.434;5.984;2023-04-01T01:02:51;42.22;39.85;45.22;;
69619;Laerm;57653;51.434;5.984;2023-04-01T01:03:01;41.47;39.48;50.64;;
69619;Laerm;57653;51.434;5.984;2023-04-01T01:03:12;41.30;38.93;45.64;;
69619;Laerm;57653;51.434;5.984;2023-04-01T01:03:22;40.84;38.04;56.67;;
69619;Laerm;57653;51.434;5.984;2023-04-01T01:03:33;42.34;39.15;58.28;;
69619;Laerm;57653;51.434;5.984;2023-04-01T01:03:44;41.33;38.24;55.14;;